Time;durP1;ratioP1;P1;durP2;ratioP2;P2;SDS_P1;SDS_P2;PMS_P1;PMS_P2;Temp;Humidity;BMP_temperature;BMP_pressure;BME280_temperature;BME280_humidity;BME280_pressure;Samples;Min_cycle;Max_cycle;Signal;HPM_P1;HPM_P2
2023/11/20 00:01:49;;;;;;;6.47;2.13;;;;;;;;;;5033808;28;20026;-68
2023/11/20 00:04:15;;;;;;;13.90;2.80;;;;;;;;;;5034376;28;20123;-70
2023/11/20 00:06:41;;;;;;;8.80;2.50;;;;;;;;;;5040090;28;20029;-69
2023/11/20 00:09:08;;;;;;;12.48;2.88;;;;;;;;;;5030119;28;20033;-69
2023/11/20 00:11:34;;;;;;;9.90;3.25;;;;;;;;;;5017726;28;20083;-69
2023/11/20 00:14:00;;;;;;;8.55;2.60;;;;;;;;;;5046480;28;20094;-69
2023/11/20 00:16:27;;;;;;;6.68;2.95;;;;;;;;;;5025963;28;20059;-72
2023/11/20 00:18:53;;;;;;;9.48;2.70;;;;;;;;;;5037626;28;20025;-68
2023/11/20 00:21:22;;;;;;;9.48;3.17;;;;;;;;;;5036964;28;20018;-68
2023/11/20 00:23:48;;;;;;;8.38;2.90;;;;;;;;;;5041006;28;20365;-68
2023/11/20 00:26:14;;;;;;;4.55;2.75;;;;;;;;;;5042896;28;20043;-68
2023/11/20 00:28:44;;;;;;;5.78;2.92;;;;;;;;;;5040232;28;20053;-67
2023/11/20 00:31:17;;;;;;;8.43;2.50;;;;;;;;;;5024436;28;20021;-69
2023/11/20 00:33:43;;;;;;;8.43;2.78;;;;;;;;;;5032732;28;20025;-71
2023/11/20 00:36:09;;;;;;;5.05;2.40;;;;;;;;;;5034857;28;20478;-69
2023/11/20 00:38:36;;;;;;;5.93;2.55;;;;;;;;;;5037959;28;20025;-68
2023/11/20 00:41:02;;;;;;;9.95;2.28;;;;;;;;;;5034872;28;20045;-69
2023/11/20 00:43:29;;;;;;;7.50;2.83;;;;;;;;;;5046033;28;20021;-69
2023/11/20 00:45:55;;;;;;;14.20;3.35;;;;;;;;;;5017409;28;20067;-68
2023/11/20 00:48:21;;;;;;;4.15;2.15;;;;;;;;;;5035905;28;20580;-69
2023/11/20 00:50:47;;;;;;;7.68;2.75;;;;;;;;;;5036161;28;20284;-68
2023/11/20 00:53:13;;;;;;;9.43;3.22;;;;;;;;;;5027824;28;20021;-68
2023/11/20 00:55:39;;;;;;;6.13;2.30;;;;;;;;;;5023227;28;20117;-69
2023/11/20 00:58:05;;;;;;;7.55;3.13;;;;;;;;;;5023118;28;20025;-68
2023/11/20 01:00:32;;;;;;;5.25;2.28;;;;;;;;;;5038352;28;20029;-68
2023/11/20 01:02:59;;;;;;;8.40;2.35;;;;;;;;;;5016827;28;20168;-69
2023/11/20 01:05:25;;;;;;;6.10;2.17;;;;;;;;;;5031496;28;20053;-70
2023/11/20 01:07:51;;;;;;;7.82;2.65;;;;;;;;;;5019472;28;20025;-70
2023/11/20 01:10:18;;;;;;;9.57;2.70;;;;;;;;;;5018594;28;20040;-69
2023/11/20 01:12:44;;;;;;;9.35;2.30;;;;;;;;;;5039876;28;20577;-67
2023/11/20 01:15:10;;;;;;;10.82;2.45;;;;;;;;;;5036948;28;20037;-69
2023/11/20 01:17:36;;;;;;;17.30;2.95;;;;;;;;;;5021994;28;20486;-74
2023/11/20 01:20:10;;;;;;;8.68;2.80;;;;;;;;;;5035138;28;20079;-68
2023/11/20 01:22:37;;;;;;;3.60;2.20;;;;;;;;;;5036795;28;20025;-69
2023/11/20 01:25:03;;;;;;;7.45;2.65;;;;;;;;;;5021517;28;20112;-70
2023/11/20 01:27:29;;;;;;;14.07;3.38;;;;;;;;;;5018014;28;20217;-68
2023/11/20 01:29:55;;;;;;;6.82;2.45;;;;;;;;;;5030068;28;20025;-69
2023/11/20 01:32:22;;;;;;;9.30;2.28;;;;;;;;;;5038885;28;20032;-72
2023/11/20 01:34:48;;;;;;;11.35;3.92;;;;;;;;;;5036555;28;20391;-71
2023/11/20 01:37:14;;;;;;;5.15;2.80;;;;;;;;;;5032480;28;20694;-70
2023/11/20 01:39:40;;;;;;;7.72;2.60;;;;;;;;;;5038833;28;20032;-70
2023/11/20 01:42:06;;;;;;;7.90;2.53;;;;;;;;;;5033145;28;20022;-69
2023/11/20 01:44:32;;;;;;;6.20;3.15;;;;;;;;;;5043438;28;20044;-69
2023/11/20 01:47:00;;;;;;;9.40;2.80;;;;;;;;;;5023469;28;20033;-69
2023/11/20 01:49:26;;;;;;;7.30;2.95;;;;;;;;;;5043954;28;20039;-74
2023/11/20 01:51:52;;;;;;;6.35;2.30;;;;;;;;;;5027982;28;20036;-68
2023/11/20 01:54:19;;;;;;;7.03;2.45;;;;;;;;;;5025896;28;20037;-68
2023/11/20 01:56:45;;;;;;;8.27;2.55;;;;;;;;;;5035757;28;20106;-69
2023/11/20 01:59:13;;;;;;;8.18;3.00;;;;;;;;;;5033603;28;20537;-69
2023/11/20 02:01:39;;;;;;;5.13;2.22;;;;;;;;;;5039008;28;20032;-69
2023/11/20 02:04:05;;;;;;;9.25;2.42;;;;;;;;;;5031904;28;20678;-68
2023/11/20 02:06:32;;;;;;;5.40;2.40;;;;;;;;;;5039027;28;20056;-69
2023/11/20 02:09:00;;;;;;;6.07;2.70;;;;;;;;;;5021137;28;20052;-69
2023/11/20 02:11:26;;;;;;;8.95;2.55;;;;;;;;;;5035354;28;20465;-69
2023/11/20 02:13:53;;;;;;;4.18;1.88;;;;;;;;;;5042591;28;20037;-69
2023/11/20 02:16:19;;;;;;;8.23;2.38;;;;;;;;;;5041893;28;20312;-70
2023/11/20 02:18:45;;;;;;;4.60;2.45;;;;;;;;;;5034862;28;20554;-70
2023/11/20 02:21:11;;;;;;;4.93;2.70;;;;;;;;;;5037936;28;20040;-69
2023/11/20 02:23:37;;;;;;;8.93;2.85;;;;;;;;;;5041054;28;20048;-68
2023/11/20 02:26:03;;;;;;;4.63;2.45;;;;;;;;;;5043853;28;20047;-68
2023/11/20 02:28:36;;;;;;;6.25;2.13;;;;;;;;;;5033386;28;20053;-69
2023/11/20 02:31:02;;;;;;;6.55;2.35;;;;;;;;;;5042032;28;20113;-71
2023/11/20 02:33:38;;;;;;;7.22;2.20;;;;;;;;;;5034607;28;20690;-68
2023/11/20 02:36:05;;;;;;;7.60;2.70;;;;;;;;;;5040033;28;20203;-69
2023/11/20 02:38:31;;;;;;;5.97;2.58;;;;;;;;;;5039398;28;20691;-68
2023/11/20 02:41:01;;;;;;;5.68;2.92;;;;;;;;;;5038414;28;20042;-69
2023/11/20 02:43:27;;;;;;;6.30;2.85;;;;;;;;;;5021457;28;20040;-68
2023/11/20 02:45:55;;;;;;;5.32;2.55;;;;;;;;;;5037681;28;20035;-68
2023/11/20 02:48:26;;;;;;;4.22;2.35;;;;;;;;;;5039030;28;20044;-68
2023/11/20 02:50:53;;;;;;;3.72;2.80;;;;;;;;;;5018365;28;20044;-68
2023/11/20 02:53:19;;;;;;;7.80;2.42;;;;;;;;;;5023621;28;20044;-68
2023/11/20 02:55:45;;;;;;;6.00;2.40;;;;;;;;;;5036894;28;20541;-68
2023/11/20 02:58:14;;;;;;;7.20;2.65;;;;;;;;;;5022322;28;20384;-68
2023/11/20 03:00:40;;;;;;;5.30;2.92;;;;;;;;;;5042083;28;20413;-68
2023/11/20 03:03:06;;;;;;;6.75;2.88;;;;;;;;;;5039373;28;20138;-69
2023/11/20 03:05:33;;;;;;;12.10;2.88;;;;;;;;;;5019340;28;20053;-68
2023/11/20 03:07:59;;;;;;;4.95;2.60;;;;;;;;;;5045576;28;20482;-69
2023/11/20 03:10:26;;;;;;;5.13;2.20;;;;;;;;;;5036752;28;20038;-69
2023/11/20 03:12:52;;;;;;;10.55;3.03;;;;;;;;;;5041122;28;20036;-69
2023/11/20 03:15:20;;;;;;;5.80;2.28;;;;;;;;;;5042158;28;20461;-69
2023/11/20 03:17:46;;;;;;;7.93;2.80;;;;;;;;;;5036296;28;21494;-69
2023/11/20 03:20:13;;;;;;;6.88;2.70;;;;;;;;;;5035717;28;20031;-68
2023/11/20 03:22:39;;;;;;;9.88;3.10;;;;;;;;;;5040452;28;20021;-69
2023/11/20 03:25:06;;;;;;;8.88;2.92;;;;;;;;;;5038286;28;20036;-69
2023/11/20 03:27:32;;;;;;;5.78;3.17;;;;;;;;;;5036674;28;20024;-69
2023/11/20 03:29:58;;;;;;;8.40;3.15;;;;;;;;;;5041235;28;21139;-68
2023/11/20 03:32:24;;;;;;;9.07;3.83;;;;;;;;;;5041239;28;20070;-68
2023/11/20 03:34:51;;;;;;;9.88;4.15;;;;;;;;;;5018682;28;20271;-69
2023/11/20 03:37:17;;;;;;;9.13;3.50;;;;;;;;;;5045368;28;20025;-69
2023/11/20 03:39:43;;;;;;;10.10;3.35;;;;;;;;;;5040849;28;20470;-69
2023/11/20 03:42:09;;;;;;;12.75;3.72;;;;;;;;;;5036232;28;20078;-69
2023/11/20 03:44:37;;;;;;;7.45;3.65;;;;;;;;;;5043315;28;20039;-69
2023/11/20 03:47:03;;;;;;;15.52;3.85;;;;;;;;;;5017199;28;20029;-70
2023/11/20 03:49:29;;;;;;;12.57;3.70;;;;;;;;;;5035085;28;20086;-69
2023/11/20 03:51:55;;;;;;;6.03;3.22;;;;;;;;;;5036775;28;20040;-74
2023/11/20 03:54:21;;;;;;;6.63;3.85;;;;;;;;;;5036812;28;20064;-70
2023/11/20 03:56:48;;;;;;;7.00;3.75;;;;;;;;;;5041472;28;20079;-69
2023/11/20 03:59:15;;;;;;;9.65;3.78;;;;;;;;;;5043825;28;20031;-72
2023/11/20 04:01:42;;;;;;;12.45;4.38;;;;;;;;;;5033950;28;20094;-69
2023/11/20 04:04:09;;;;;;;10.23;3.83;;;;;;;;;;5022584;28;20068;-70
2023/11/20 04:06:35;;;;;;;12.52;4.47;;;;;;;;;;5018977;28;20479;-69
2023/11/20 04:09:02;;;;;;;6.63;3.83;;;;;;;;;;5016991;28;20029;-69
2023/11/20 04:11:28;;;;;;;9.20;3.30;;;;;;;;;;5018498;28;20034;-69
2023/11/20 04:13:54;;;;;;;6.93;3.17;;;;;;;;;;5020465;28;20013;-68
2023/11/20 04:16:20;;;;;;;13.43;4.10;;;;;;;;;;5019524;28;20033;-68
2023/11/20 04:18:46;;;;;;;12.25;3.70;;;;;;;;;;5025750;28;20029;-68
2023/11/20 04:21:12;;;;;;;7.05;3.10;;;;;;;;;;5019685;28;20876;-74
2023/11/20 04:23:39;;;;;;;16.42;4.28;;;;;;;;;;5020305;28;20362;-68
2023/11/20 04:26:05;;;;;;;7.60;3.70;;;;;;;;;;5016773;28;20472;-69
2023/11/20 04:28:31;;;;;;;7.55;3.13;;;;;;;;;;5020818;28;20033;-68
2023/11/20 04:31:00;;;;;;;12.13;3.60;;;;;;;;;;5020225;28;20037;-68
2023/11/20 04:33:27;;;;;;;8.13;3.72;;;;;;;;;;5027871;28;20535;-69
2023/11/20 04:35:53;;;;;;;11.02;3.42;;;;;;;;;;5036599;28;20483;-68
2023/11/20 04:38:19;;;;;;;6.90;3.72;;;;;;;;;;5029939;28;20036;-69
2023/11/20 04:40:48;;;;;;;7.95;2.88;;;;;;;;;;5016031;28;20585;-68
2023/11/20 04:43:15;;;;;;;8.13;3.45;;;;;;;;;;5032026;28;20104;-68
2023/11/20 04:45:41;;;;;;;11.32;4.05;;;;;;;;;;5012843;28;20029;-69
2023/11/20 04:48:09;;;;;;;11.63;4.72;;;;;;;;;;5014494;28;20121;-69
2023/11/20 04:50:36;;;;;;;11.50;4.03;;;;;;;;;;5011290;28;20025;-69
2023/11/20 04:53:02;;;;;;;15.20;4.97;;;;;;;;;;5005227;28;20394;-68
2023/11/20 04:55:28;;;;;;;13.45;4.20;;;;;;;;;;5024448;28;20372;-68
2023/11/20 04:57:57;;;;;;;10.95;4.50;;;;;;;;;;5018999;28;20376;-68
2023/11/20 05:00:23;;;;;;;14.65;4.35;;;;;;;;;;5013949;28;20044;-67
2023/11/20 05:02:49;;;;;;;8.15;4.10;;;;;;;;;;5014038;28;20025;-68
2023/11/20 05:05:15;;;;;;;8.20;4.13;;;;;;;;;;5038038;28;20147;-67
2023/11/20 05:07:42;;;;;;;9.25;3.72;;;;;;;;;;5030652;28;20029;-68
2023/11/20 05:10:08;;;;;;;12.00;3.95;;;;;;;;;;5033400;28;20037;-68
2023/11/20 05:12:34;;;;;;;4.90;3.05;;;;;;;;;;5032999;28;20441;-68
2023/11/20 05:15:00;;;;;;;8.88;3.63;;;;;;;;;;5015045;28;20032;-69
2023/11/20 05:17:28;;;;;;;9.23;3.60;;;;;;;;;;5033259;28;20095;-68
2023/11/20 05:19:55;;;;;;;10.07;3.38;;;;;;;;;;5036987;28;20036;-69
2023/11/20 05:22:21;;;;;;;6.13;2.90;;;;;;;;;;5029678;28;20029;-69
2023/11/20 05:24:48;;;;;;;9.40;3.20;;;;;;;;;;5032672;28;20061;-69
2023/11/20 05:27:14;;;;;;;11.73;3.70;;;;;;;;;;5040510;28;20043;-68
2023/11/20 05:29:40;;;;;;;10.18;3.05;;;;;;;;;;5013415;28;20223;-68
2023/11/20 05:32:09;;;;;;;8.38;3.55;;;;;;;;;;5034119;28;20036;-68
2023/11/20 05:34:37;;;;;;;5.55;3.00;;;;;;;;;;5038425;28;20037;-69
2023/11/20 05:37:03;;;;;;;7.35;3.00;;;;;;;;;;5037269;28;20112;-69
2023/11/20 05:39:29;;;;;;;4.88;3.53;;;;;;;;;;5042174;28;20021;-68
2023/11/20 05:41:56;;;;;;;7.40;2.70;;;;;;;;;;5026269;28;20036;-69
2023/11/20 05:44:22;;;;;;;3.88;2.72;;;;;;;;;;5036289;28;20479;-69
2023/11/20 05:46:59;;;;;;;3.28;2.55;;;;;;;;;;5027266;28;20025;-68
2023/11/20 05:49:25;;;;;;;3.78;2.58;;;;;;;;;;5034400;28;20036;-69
2023/11/20 05:51:53;;;;;;;4.97;2.85;;;;;;;;;;5035469;28;20055;-69
2023/11/20 05:54:19;;;;;;;5.00;2.50;;;;;;;;;;5033217;28;20033;-68
2023/11/20 05:56:46;;;;;;;4.50;2.25;;;;;;;;;;5029002;28;20344;-69
2023/11/20 05:59:12;;;;;;;3.50;2.53;;;;;;;;;;5031524;28;20135;-69
2023/11/20 06:01:39;;;;;;;4.18;2.50;;;;;;;;;;5036207;28;20021;-69
2023/11/20 06:04:08;;;;;;;3.83;2.83;;;;;;;;;;5035333;28;20330;-69
2023/11/20 06:06:35;;;;;;;4.80;3.05;;;;;;;;;;5038081;28;20044;-69
2023/11/20 06:09:04;;;;;;;4.82;2.67;;;;;;;;;;5037156;28;20072;-69
2023/11/20 06:11:33;;;;;;;3.25;2.45;;;;;;;;;;5038292;28;20331;-69
2023/11/20 06:13:59;;;;;;;4.38;2.47;;;;;;;;;;5042829;28;20021;-69
2023/11/20 06:16:28;;;;;;;4.32;2.40;;;;;;;;;;5042959;28;20026;-69
2023/11/20 06:18:54;;;;;;;3.95;2.35;;;;;;;;;;5037562;28;20025;-68
2023/11/20 06:21:21;;;;;;;2.67;2.25;;;;;;;;;;5038416;28;20052;-68
2023/11/20 06:23:47;;;;;;;3.95;2.22;;;;;;;;;;5042995;28;20133;-68
2023/11/20 06:26:16;;;;;;;4.45;2.50;;;;;;;;;;5039984;28;20173;-68
2023/11/20 06:28:42;;;;;;;5.20;2.35;;;;;;;;;;5039381;28;20079;-67
2023/11/20 06:31:09;;;;;;;3.42;2.03;;;;;;;;;;5042926;28;20056;-68
2023/11/20 06:33:35;;;;;;;2.38;2.17;;;;;;;;;;5045605;28;20021;-69
2023/11/20 06:36:04;;;;;;;3.00;2.38;;;;;;;;;;5043050;28;20086;-70
2023/11/20 06:38:30;;;;;;;2.70;2.17;;;;;;;;;;5041032;28;20390;-70
2023/11/20 06:40:56;;;;;;;3.95;2.10;;;;;;;;;;5041402;28;20036;-70
2023/11/20 06:43:23;;;;;;;6.32;2.40;;;;;;;;;;5025068;28;20033;-70
2023/11/20 06:45:49;;;;;;;4.28;2.50;;;;;;;;;;5033015;28;20031;-70
2023/11/20 06:48:15;;;;;;;2.53;2.15;;;;;;;;;;5027736;28;20430;-70
2023/11/20 06:50:42;;;;;;;3.22;2.15;;;;;;;;;;5040655;28;20518;-70
2023/11/20 06:53:09;;;;;;;3.17;2.00;;;;;;;;;;5042161;28;20044;-70
2023/11/20 06:55:35;;;;;;;3.15;2.20;;;;;;;;;;5032804;28;20120;-69
2023/11/20 06:58:02;;;;;;;2.30;2.10;;;;;;;;;;5038760;28;20072;-70
2023/11/20 07:00:28;;;;;;;2.42;2.08;;;;;;;;;;5034941;28;20039;-70
2023/11/20 07:02:55;;;;;;;2.75;2.20;;;;;;;;;;5045353;28;20025;-69
2023/11/20 07:05:21;;;;;;;5.00;2.10;;;;;;;;;;5031139;28;20133;-69
2023/11/20 07:07:52;;;;;;;3.80;2.00;;;;;;;;;;5037341;28;20281;-70
2023/11/20 07:10:22;;;;;;;1.88;1.77;;;;;;;;;;5024865;28;20391;-70
2023/11/20 07:12:49;;;;;;;2.63;2.00;;;;;;;;;;5022277;28;20029;-70
2023/11/20 07:15:15;;;;;;;5.72;1.70;;;;;;;;;;5019336;28;20039;-70
2023/11/20 07:17:41;;;;;;;2.20;1.90;;;;;;;;;;5015449;28;20390;-69
2023/11/20 07:20:08;;;;;;;4.70;1.80;;;;;;;;;;5038743;28;20039;-70
2023/11/20 07:22:36;;;;;;;2.75;1.90;;;;;;;;;;5047434;28;20029;-70
2023/11/20 07:25:04;;;;;;;2.67;1.90;;;;;;;;;;5030879;28;20029;-70
2023/11/20 07:27:31;;;;;;;3.42;2.00;;;;;;;;;;5044235;28;20549;-70
2023/11/20 07:29:58;;;;;;;2.97;1.90;;;;;;;;;;5044956;28;20464;-70
2023/11/20 07:32:24;;;;;;;2.20;1.92;;;;;;;;;;5041747;28;20033;-70
2023/11/20 07:34:50;;;;;;;3.15;1.73;;;;;;;;;;5043392;28;20067;-70
2023/11/20 07:37:21;;;;;;;1.52;1.42;;;;;;;;;;5050268;28;20040;-69
2023/11/20 07:39:48;;;;;;;2.40;2.03;;;;;;;;;;5041027;28;20044;-70
2023/11/20 07:42:14;;;;;;;2.28;1.70;;;;;;;;;;5042414;28;20408;-70
2023/11/20 07:44:41;;;;;;;2.20;2.00;;;;;;;;;;5036428;28;20048;-69
2023/11/20 07:47:07;;;;;;;3.97;2.00;;;;;;;;;;5015406;28;20052;-69
2023/11/20 07:49:33;;;;;;;2.30;1.58;;;;;;;;;;5040356;28;20089;-69
2023/11/20 07:51:59;;;;;;;2.42;1.70;;;;;;;;;;5033239;28;20386;-69
2023/11/20 07:54:26;;;;;;;1.73;1.52;;;;;;;;;;5036065;28;20041;-68
2023/11/20 07:56:53;;;;;;;2.58;2.15;;;;;;;;;;5017946;28;20021;-69
2023/11/20 07:59:19;;;;;;;2.08;1.30;;;;;;;;;;5040069;28;20084;-71
2023/11/20 08:01:45;;;;;;;2.22;1.60;;;;;;;;;;5040446;28;20088;-70
2023/11/20 08:04:15;;;;;;;1.52;1.42;;;;;;;;;;5036445;28;20123;-70
2023/11/20 08:06:41;;;;;;;2.13;1.50;;;;;;;;;;5045643;28;20098;-69
2023/11/20 08:09:09;;;;;;;1.95;1.60;;;;;;;;;;5031665;28;20036;-72
2023/11/20 08:11:36;;;;;;;1.42;1.33;;;;;;;;;;5019437;28;20035;-68
2023/11/20 08:14:03;;;;;;;1.80;1.40;;;;;;;;;;5034870;28;20037;-70
2023/11/20 08:16:29;;;;;;;1.60;1.50;;;;;;;;;;5039641;28;20451;-69
2023/11/20 08:19:00;;;;;;;1.40;1.30;;;;;;;;;;5038205;28;20056;-69
2023/11/20 08:21:26;;;;;;;2.15;1.55;;;;;;;;;;5047709;28;20400;-69
2023/11/20 08:23:53;;;;;;;1.77;1.67;;;;;;;;;;5042870;28;20020;-69
2023/11/20 08:26:20;;;;;;;1.13;1.13;;;;;;;;;;5043746;28;20136;-70
2023/11/20 08:28:46;;;;;;;1.45;1.40;;;;;;;;;;5040992;28;20079;-69
2023/11/20 08:31:13;;;;;;;2.55;1.40;;;;;;;;;;5016202;28;20116;-69
2023/11/20 08:33:39;;;;;;;1.30;1.20;;;;;;;;;;5045261;28;20025;-69
2023/11/20 08:36:07;;;;;;;1.67;1.45;;;;;;;;;;5035123;28;20068;-71
2023/11/20 08:38:33;;;;;;;1.38;1.27;;;;;;;;;;5040669;28;20024;-72
2023/11/20 08:41:00;;;;;;;1.40;1.30;;;;;;;;;;5044804;28;20028;-71
2023/11/20 08:43:27;;;;;;;1.23;1.23;;;;;;;;;;5019323;28;20424;-69
2023/11/20 08:45:54;;;;;;;2.75;1.35;;;;;;;;;;5036660;28;20103;-70
2023/11/20 08:48:20;;;;;;;1.77;1.50;;;;;;;;;;5039615;28;20043;-71
2023/11/20 08:50:46;;;;;;;2.45;1.20;;;;;;;;;;5040085;28;20036;-71
2023/11/20 08:53:12;;;;;;;3.33;2.05;;;;;;;;;;5026281;28;20052;-71
2023/11/20 08:55:38;;;;;;;2.10;1.40;;;;;;;;;;5036598;28;20079;-71
2023/11/20 08:58:05;;;;;;;1.38;1.27;;;;;;;;;;5032767;28;20036;-70
2023/11/20 09:00:31;;;;;;;1.45;1.40;;;;;;;;;;5036907;28;20055;-70
2023/11/20 09:02:57;;;;;;;3.90;1.50;;;;;;;;;;5046683;28;20035;-69
2023/11/20 09:05:24;;;;;;;1.27;1.20;;;;;;;;;;5028234;28;20054;-69
2023/11/20 09:07:50;;;;;;;1.27;1.20;;;;;;;;;;5036199;28;20498;-71
2023/11/20 09:10:16;;;;;;;1.73;1.25;;;;;;;;;;5044496;28;20032;-73
2023/11/20 09:12:42;;;;;;;2.25;1.40;;;;;;;;;;5038870;28;20732;-71
2023/11/20 09:15:10;;;;;;;1.90;1.70;;;;;;;;;;5034362;28;20039;-71
2023/11/20 09:17:37;;;;;;;1.10;1.10;;;;;;;;;;5038604;28;20029;-69
2023/11/20 09:20:04;;;;;;;3.38;1.45;;;;;;;;;;5032531;28;20470;-69
2023/11/20 09:22:30;;;;;;;1.50;1.40;;;;;;;;;;5025945;28;20112;-72
2023/11/20 09:24:59;;;;;;;10.52;1.75;;;;;;;;;;5041001;28;20367;-69
2023/11/20 09:27:26;;;;;;;3.15;1.20;;;;;;;;;;5038214;28;20029;-70
2023/11/20 09:29:52;;;;;;;1.27;1.27;;;;;;;;;;5045364;28;20056;-69
2023/11/20 09:32:18;;;;;;;1.40;1.30;;;;;;;;;;5041426;28;20461;-69
2023/11/20 09:34:44;;;;;;;1.42;1.30;;;;;;;;;;5039238;28;20810;-69
2023/11/20 09:37:10;;;;;;;1.30;1.30;;;;;;;;;;5036021;28;20037;-70
2023/11/20 09:39:41;;;;;;;1.25;1.15;;;;;;;;;;5039236;28;20031;-71
2023/11/20 09:42:08;;;;;;;2.05;1.33;;;;;;;;;;5030597;28;20045;-69
2023/11/20 09:44:38;;;;;;;1.38;1.33;;;;;;;;;;5030438;28;20387;-69
2023/11/20 09:47:12;;;;;;;1.35;1.30;;;;;;;;;;5029980;28;20029;-69
2023/11/20 09:49:40;;;;;;;2.25;1.27;;;;;;;;;;5040552;28;20120;-70
2023/11/20 09:52:08;;;;;;;6.72;1.50;;;;;;;;;;5035604;28;20116;-70
2023/11/20 09:54:38;;;;;;;2.05;1.30;;;;;;;;;;5029750;28;20075;-70
2023/11/20 09:57:04;;;;;;;1.40;1.10;;;;;;;;;;5036908;28;20021;-70
2023/11/20 09:59:31;;;;;;;1.63;1.52;;;;;;;;;;5037761;28;20060;-70
2023/11/20 10:01:57;;;;;;;1.50;1.40;;;;;;;;;;5034092;28;20581;-70
2023/11/20 10:04:24;;;;;;;3.33;1.50;;;;;;;;;;5026552;28;20569;-69
2023/11/20 10:06:54;;;;;;;1.30;1.20;;;;;;;;;;5036463;28;20410;-70
2023/11/20 10:09:22;;;;;;;1.13;1.13;;;;;;;;;;5037598;28;20143;-70
2023/11/20 10:11:49;;;;;;;2.58;1.60;;;;;;;;;;5032042;28;20031;-70
2023/11/20 10:14:19;;;;;;;2.03;1.50;;;;;;;;;;5031740;28;20105;-70
2023/11/20 10:16:53;;;;;;;3.78;1.50;;;;;;;;;;5036790;28;20021;-75
2023/11/20 10:19:19;;;;;;;1.70;1.50;;;;;;;;;;5040318;28;20043;-70
2023/11/20 10:21:47;;;;;;;2.42;1.50;;;;;;;;;;5028148;28;20040;-73
2023/11/20 10:24:16;;;;;;;1.63;1.52;;;;;;;;;;5021096;28;20052;-70
2023/11/20 10:26:43;;;;;;;1.77;1.67;;;;;;;;;;5040847;28;20061;-70
2023/11/20 10:29:10;;;;;;;2.10;1.42;;;;;;;;;;5040551;28;20036;-69
2023/11/20 10:31:45;;;;;;;1.42;1.33;;;;;;;;;;5040956;28;20033;-69
2023/11/20 10:34:12;;;;;;;2.17;1.42;;;;;;;;;;5038802;28;20021;-71
2023/11/20 10:36:39;;;;;;;2.38;1.70;;;;;;;;;;5041484;28;20573;-68
2023/11/20 10:39:05;;;;;;;1.85;1.48;;;;;;;;;;5017888;28;20574;-70
2023/11/20 10:41:32;;;;;;;3.92;1.75;;;;;;;;;;5023142;28;20444;-70
2023/11/20 10:43:59;;;;;;;1.60;1.50;;;;;;;;;;5037733;28;20086;-70
2023/11/20 10:46:29;;;;;;;2.58;1.42;;;;;;;;;;5020616;28;20049;-70
2023/11/20 10:48:55;;;;;;;4.20;1.70;;;;;;;;;;5020954;28;20083;-70
2023/11/20 10:51:23;;;;;;;11.15;2.03;;;;;;;;;;5034132;28;20520;-69
2023/11/20 10:54:00;;;;;;;1.55;1.45;;;;;;;;;;5022622;28;20029;-69
2023/11/20 10:56:27;;;;;;;3.15;1.60;;;;;;;;;;5025791;28;20029;-71
2023/11/20 10:58:55;;;;;;;3.72;1.95;;;;;;;;;;5038300;28;20026;-71
2023/11/20 11:01:22;;;;;;;2.33;1.40;;;;;;;;;;5040261;28;20652;-71
2023/11/20 11:03:49;;;;;;;2.95;1.80;;;;;;;;;;5041306;28;20128;-70
2023/11/20 11:06:16;;;;;;;2.30;1.40;;;;;;;;;;5045209;28;20176;-72
2023/11/20 11:08:46;;;;;;;7.78;1.60;;;;;;;;;;5017190;28;20039;-70
2023/11/20 11:11:15;;;;;;;2.30;1.70;;;;;;;;;;5044645;28;20025;-70
2023/11/20 11:13:43;;;;;;;2.75;1.80;;;;;;;;;;5041274;28;20021;-70
2023/11/20 11:16:11;;;;;;;1.98;1.50;;;;;;;;;;5014145;28;20037;-70
2023/11/20 11:18:40;;;;;;;2.10;1.70;;;;;;;;;;5033206;28;20083;-70
2023/11/20 11:21:08;;;;;;;2.85;1.50;;;;;;;;;;5035882;28;20036;-70
2023/11/20 11:23:35;;;;;;;4.30;1.50;;;;;;;;;;5023531;28;20429;-70
2023/11/20 11:26:13;;;;;;;2.15;1.40;;;;;;;;;;5026278;28;20182;-70
2023/11/20 11:28:41;;;;;;;1.20;1.20;;;;;;;;;;5044567;28;20131;-70
2023/11/20 11:31:09;;;;;;;1.75;1.65;;;;;;;;;;5039531;28;20310;-69
2023/11/20 11:33:45;;;;;;;2.15;1.60;;;;;;;;;;5017288;28;20041;-70
2023/11/20 11:36:22;;;;;;;4.00;1.70;;;;;;;;;;5039397;28;20038;-69
2023/11/20 11:38:54;;;;;;;2.45;1.77;;;;;;;;;;5027673;28;20021;-69
2023/11/20 11:41:20;;;;;;;2.92;1.65;;;;;;;;;;5039856;28;20049;-70
2023/11/20 11:44:02;;;;;;;2.90;1.85;;;;;;;;;;5038055;28;20107;-70
2023/11/20 11:46:28;;;;;;;3.13;1.75;;;;;;;;;;5033300;28;20969;-70
2023/11/20 11:49:13;;;;;;;6.78;2.28;;;;;;;;;;5037044;28;20025;-70
2023/11/20 11:51:39;;;;;;;4.30;1.52;;;;;;;;;;5037224;28;20025;-69
2023/11/20 11:54:15;;;;;;;4.15;1.58;;;;;;;;;;5043229;28;20123;-70
2023/11/20 11:57:00;;;;;;;1.25;1.20;;;;;;;;;;5036689;28;20033;-70
2023/11/20 11:59:43;;;;;;;2.13;1.25;;;;;;;;;;5036699;28;20055;-70
2023/11/20 12:02:18;;;;;;;3.03;1.70;;;;;;;;;;5022256;28;20438;-70
2023/11/20 12:04:49;;;;;;;3.92;1.50;;;;;;;;;;5036583;28;20052;-69
2023/11/20 12:07:16;;;;;;;2.95;1.65;;;;;;;;;;5036329;28;20035;-69
2023/11/20 12:09:58;;;;;;;6.53;1.85;;;;;;;;;;5045384;28;20116;-70
2023/11/20 12:12:43;;;;;;;2.03;1.40;;;;;;;;;;5037382;28;20029;-71
2023/11/20 12:15:37;;;;;;;4.22;1.80;;;;;;;;;;5019681;28;20474;-69
2023/11/20 12:18:06;;;;;;;3.00;1.50;;;;;;;;;;5040207;28;20561;-69
2023/11/20 12:20:42;;;;;;;1.83;1.52;;;;;;;;;;5042715;28;20033;-70
2023/11/20 12:23:09;;;;;;;;;;;;;;;;;;5028695;28;20029;-69
2023/11/20 12:25:39;;;;;;;3.85;1.77;;;;;;;;;;5029402;28;20402;-69
2023/11/20 12:28:08;;;;;;;1.63;1.52;;;;;;;;;;5042017;28;20078;-69
2023/11/20 12:30:35;;;;;;;4.40;2.88;;;;;;;;;;5011800;28;20028;-70
2023/11/20 12:33:02;;;;;;;3.95;1.75;;;;;;;;;;5016211;28;20110;-69
2023/11/20 12:35:29;;;;;;;6.18;3.75;;;;;;;;;;5032649;28;20037;-69
2023/11/20 12:37:55;;;;;;;6.63;2.05;;;;;;;;;;5037795;28;20040;-70
2023/11/20 12:40:21;;;;;;;5.90;1.80;;;;;;;;;;5037731;28;20059;-69
2023/11/20 12:42:47;;;;;;;3.58;1.67;;;;;;;;;;5032010;28;20498;-70
2023/11/20 12:45:13;;;;;;;2.22;1.77;;;;;;;;;;5033675;28;20032;-71
2023/11/20 12:47:39;;;;;;;2.28;1.70;;;;;;;;;;5044558;28;20036;-71
2023/11/20 12:50:06;;;;;;;2.05;1.85;;;;;;;;;;5029713;28;20034;-70
2023/11/20 12:52:33;;;;;;;3.25;1.42;;;;;;;;;;5029891;28;20026;-70
2023/11/20 12:54:59;;;;;;;1.10;1.10;;;;;;;;;;5039506;28;20039;-70
2023/11/20 12:57:26;;;;;;;3.42;2.00;;;;;;;;;;5035697;28;20468;-70
2023/11/20 12:59:52;;;;;;;3.00;1.88;;;;;;;;;;5029569;28;20244;-70
2023/11/20 13:02:24;;;;;;;3.33;2.25;;;;;;;;;;5043572;28;20053;-70
2023/11/20 13:04:53;;;;;;;136.75;20.25;;;;;;;;;;5042016;28;20094;-70
2023/11/20 13:07:23;;;;;;;385.42;54.90;;;;;;;;;;5045190;28;20082;-69
2023/11/20 13:09:53;;;;;;;180.63;27.20;;;;;;;;;;5034973;28;20021;-71
2023/11/20 13:12:19;;;;;;;164.45;30.98;;;;;;;;;;5013478;28;20124;-71
2023/11/20 13:15:01;;;;;;;72.07;8.18;;;;;;;;;;5034196;28;20114;-70
2023/11/20 13:17:31;;;;;;;30.20;6.53;;;;;;;;;;5037172;28;20037;-73
2023/11/20 13:19:57;;;;;;;61.80;11.23;;;;;;;;;;5029637;28;20652;-69
2023/11/20 13:25:02;;;;;;;22.27;4.82;;;;;;;;;;4981985;22;20615;-69
2023/11/20 13:27:29;;;;;;;32.97;5.68;;;;;;;;;;4990985;28;20514;-70
2023/11/20 13:30:11;;;;;;;7.35;3.10;;;;;;;;;;4997181;28;20451;-68
2023/11/20 13:32:37;;;;;;;5.78;3.40;;;;;;;;;;4988870;28;20026;-70
2023/11/20 13:35:03;;;;;;;4.88;2.42;;;;;;;;;;4999398;28;20037;-70
2023/11/20 13:37:31;;;;;;;2.60;2.10;;;;;;;;;;5010490;28;20577;-68
2023/11/20 13:39:58;;;;;;;3.78;2.03;;;;;;;;;;5010845;28;20488;-69
2023/11/20 13:42:24;;;;;;;6.03;3.05;;;;;;;;;;5017722;28;20542;-69
2023/11/20 13:44:50;;;;;;;3.47;2.00;;;;;;;;;;5017722;28;20024;-69
2023/11/20 13:47:16;;;;;;;2.90;1.52;;;;;;;;;;5020078;28;20033;-69
2023/11/20 13:49:44;;;;;;;3.95;2.03;;;;;;;;;;5019093;28;20037;-68
2023/11/20 13:52:10;;;;;;;3.70;2.10;;;;;;;;;;5001930;28;20041;-69
2023/11/20 13:54:37;;;;;;;3.33;1.60;;;;;;;;;;5011833;28;20044;-68
2023/11/20 13:57:04;;;;;;;6.18;2.58;;;;;;;;;;5015857;28;20419;-69
2023/11/20 13:59:30;;;;;;;2.42;1.95;;;;;;;;;;5010853;28;20036;-68
2023/11/20 14:01:56;;;;;;;1.77;1.42;;;;;;;;;;5013304;28;20803;-69
2023/11/20 14:04:22;;;;;;;1.45;1.33;;;;;;;;;;5013770;28;20041;-69
2023/11/20 14:06:49;;;;;;;3.40;1.55;;;;;;;;;;5016484;28;20044;-70
2023/11/20 14:09:15;;;;;;;2.95;1.60;;;;;;;;;;5010998;28;20034;-69
2023/11/20 14:11:41;;;;;;;2.50;1.65;;;;;;;;;;5008873;28;20030;-68
2023/11/20 14:14:07;;;;;;;4.65;2.30;;;;;;;;;;5026393;28;20624;-68
2023/11/20 14:16:33;;;;;;;2.30;1.90;;;;;;;;;;5010202;28;20037;-69
2023/11/20 14:19:00;;;;;;;5.13;1.83;;;;;;;;;;5009027;28;20022;-69
2023/11/20 14:21:26;;;;;;;4.13;2.08;;;;;;;;;;5016497;28;20553;-69
2023/11/20 14:23:52;;;;;;;2.15;1.63;;;;;;;;;;5016455;28;20049;-68
2023/11/20 14:26:18;;;;;;;4.40;2.10;;;;;;;;;;5016670;28;20026;-70
2023/11/20 14:28:45;;;;;;;3.47;2.20;;;;;;;;;;5025694;28;20028;-68
2023/11/20 14:31:12;;;;;;;2.67;2.25;;;;;;;;;;5021008;28;20496;-68
2023/11/20 14:33:39;;;;;;;4.68;2.00;;;;;;;;;;5013780;28;20564;-69
2023/11/20 14:36:06;;;;;;;2.95;1.90;;;;;;;;;;5015488;28;20061;-67
2023/11/20 14:38:34;;;;;;;3.78;2.20;;;;;;;;;;5022522;28;20113;-68
2023/11/20 14:41:00;;;;;;;2.20;1.40;;;;;;;;;;5012151;28;20026;-68
2023/11/20 14:43:26;;;;;;;4.40;1.83;;;;;;;;;;5015723;28;20021;-68
2023/11/20 14:45:52;;;;;;;2.13;1.90;;;;;;;;;;5018790;28;20172;-69